Orlando, FL (32801)

4:32 PM EDT on July 29, 2016 (GMT -0400)
East Central Park | | Change Station

Elev 135 ft 28.54 °N, 81.35 °W | Updated 21 seconds ago

Thunderstorm
Thunderstorm
85.3 °F
Feels Like 95 °F
N
0.0
Wind Variable Wind from ESE

Today
High -- | Low -- °F
--% Chance of Precip.
Yesterday
High -- | Low -- °F
Precip. -- in
Pressure 30.04 in
Visibility 10.0 miles
Clouds Few 4700 ft
Mostly Cloudy 6500 ft
Mostly Cloudy 8000 ft
Heat Index 95 °F
Dew Point 76 °F
Humidity 75%
Rainfall 0.00 in
Snow Depth Not available.
6:45 AM 8:17 PM
Waning Crescent, 19% visible
METAR KORL 291953Z 16007KT 10SM TS FEW047 BKN065 BKN080 29/22 A3003 RMK AO2 LTG DSNT ALQDS TSB10E25B34 SLP172 T02940222
Pressure 30.04 in
Visibility 10.0 miles
Clouds Few 4700 ft
Mostly Cloudy 6500 ft
Mostly Cloudy 8000 ft
Heat Index 95 °F
Dew Point 76 °F
Humidity 75%
Rainfall 0.00 in
Snow Depth Not available.
6:45 AM 8:17 PM
Waning Crescent, 19% visible
METAR KORL 291953Z 16007KT 10SM TS FEW047 BKN065 BKN080 29/22 A3003 RMK AO2 LTG DSNT ALQDS TSB10E25B34 SLP172 T02940222

10-Day Weather Forecast

Almanac

Astronomy

Jul. 29, 2016 Rise Set
Actual Time
Civil Twilight
Nautical Twilight
Astronomical Twilight
Moon
Length of Visible Light
Length of Day
Tomorrow will be .
, % of the Moon is Illuminated

Today's Extremes

State Highs State Lows

Community

WunderPhotos

Upload Photos

1,928,407 photos uploaded!

WunderBlog® & News

Nearby

Air Quality

  Air Quality AQ Index Pollutant
Not available.

Snow Depth

Station Depth Elevation

Earthquake Activity

City Distance Mag. Time & Date
Minimum magnitude displayed is 2.5.

Coastal Water Temperatures

Place Temperature

Stations

Nearby Weather Stations

Station Location Temp. Windchill Dew Point Humidity Wind Precip. Elev Updated Type
                   

Watches & Warnings

There are currently no watches in effect.